sensor_id;sensor_type;location;lat;lon;timestamp;pressure;altitude;pressure_sealevel;temperature;humidity
11077;BME280;5591;42.626;23.380;2023-08-06T00:00:25;93061.50;;;20.85;100.00
11077;BME280;5591;42.626;23.380;2023-08-06T01:14:02;92962.94;;;21.22;100.00
11077;BME280;5591;42.626;23.380;2023-08-06T01:16:32;92968.00;;;21.24;100.00
11077;BME280;5591;42.626;23.380;2023-08-06T01:19:00;92967.56;;;20.88;100.00
11077;BME280;5591;42.626;23.380;2023-08-06T01:21:28;92967.94;;;20.77;100.00
11077;BME280;5591;42.626;23.380;2023-08-06T01:23:55;92950.69;;;20.98;100.00
11077;BME280;5591;42.626;23.380;2023-08-06T01:26:25;92946.94;;;21.22;100.00
11077;BME280;5591;42.626;23.380;2023-08-06T01:28:59;92957.88;;;20.97;100.00
11077;BME280;5591;42.626;23.380;2023-08-06T01:31:31;92936.63;;;20.87;100.00
11077;BME280;5591;42.626;23.380;2023-08-06T01:33:59;92941.94;;;20.59;100.00
11077;BME280;5591;42.626;23.380;2023-08-06T01:36:30;92945.66;;;20.91;100.00
11077;BME280;5591;42.626;23.380;2023-08-06T01:38:57;92943.00;;;21.15;100.00
11077;BME280;5591;42.626;23.380;2023-08-06T01:41:24;92931.78;;;20.94;100.00
11077;BME280;5591;42.626;23.380;2023-08-06T01:43:50;92933.03;;;21.02;100.00
11077;BME280;5591;42.626;23.380;2023-08-06T01:46:17;92926.00;;;20.82;100.00
11077;BME280;5591;42.626;23.380;2023-08-06T01:48:44;92925.69;;;20.89;100.00
11077;BME280;5591;42.626;23.380;2023-08-06T01:51:11;92929.75;;;21.10;100.00
11077;BME280;5591;42.626;23.380;2023-08-06T01:53:39;92927.34;;;21.08;100.00
11077;BME280;5591;42.626;23.380;2023-08-06T01:56:06;92901.53;;;20.75;100.00
11077;BME280;5591;42.626;23.380;2023-08-06T01:58:33;92930.53;;;20.82;100.00
11077;BME280;5591;42.626;23.380;2023-08-06T02:01:00;92927.47;;;20.65;100.00
11077;BME280;5591;42.626;23.380;2023-08-06T02:03:27;92918.78;;;20.54;100.00
11077;BME280;5591;42.626;23.380;2023-08-06T02:05:54;92922.28;;;20.50;100.00
11077;BME280;5591;42.626;23.380;2023-08-06T02:08:21;92913.44;;;20.54;100.00
11077;BME280;5591;42.626;23.380;2023-08-06T02:10:49;92891.53;;;20.34;100.00
11077;BME280;5591;42.626;23.380;2023-08-06T02:13:16;92910.34;;;20.76;100.00
11077;BME280;5591;42.626;23.380;2023-08-06T02:15:43;92835.41;;;20.21;100.00
11077;BME280;5591;42.626;23.380;2023-08-06T02:18:10;92906.69;;;20.67;100.00
11077;BME280;5591;42.626;23.380;2023-08-06T02:20:36;92914.63;;;20.72;100.00
11077;BME280;5591;42.626;23.380;2023-08-06T02:23:03;92930.03;;;20.75;100.00
11077;BME280;5591;42.626;23.380;2023-08-06T02:25:30;92905.50;;;20.49;100.00
11077;BME280;5591;42.626;23.380;2023-08-06T02:27:58;92925.94;;;20.31;100.00
11077;BME280;5591;42.626;23.380;2023-08-06T02:30:25;92922.44;;;20.35;100.00
11077;BME280;5591;42.626;23.380;2023-08-06T02:32:52;92899.47;;;20.01;100.00
11077;BME280;5591;42.626;23.380;2023-08-06T02:35:19;92895.81;;;19.92;100.00
11077;BME280;5591;42.626;23.380;2023-08-06T02:37:45;92900.97;;;20.17;100.00
11077;BME280;5591;42.626;23.380;2023-08-06T02:40:12;92924.53;;;20.66;100.00
11077;BME280;5591;42.626;23.380;2023-08-06T02:42:39;92950.03;;;20.49;100.00
11077;BME280;5591;42.626;23.380;2023-08-06T02:45:08;92932.19;;;20.44;100.00
11077;BME280;5591;42.626;23.380;2023-08-06T02:47:35;92980.44;;;20.48;100.00
11077;BME280;5591;42.626;23.380;2023-08-06T02:50:02;92930.75;;;20.24;100.00
11077;BME280;5591;42.626;23.380;2023-08-06T02:52:29;92918.28;;;20.19;100.00
11077;BME280;5591;42.626;23.380;2023-08-06T02:54:56;92865.81;;;19.81;100.00
11077;BME280;5591;42.626;23.380;2023-08-06T02:57:25;92884.28;;;20.01;100.00
11077;BME280;5591;42.626;23.380;2023-08-06T02:59:52;92893.84;;;20.07;100.00
11077;BME280;5591;42.626;23.380;2023-08-06T03:02:20;92905.94;;;20.28;100.00
11077;BME280;5591;42.626;23.380;2023-08-06T03:04:47;92910.63;;;20.41;100.00
11077;BME280;5591;42.626;23.380;2023-08-06T03:07:13;92863.03;;;20.58;100.00
11077;BME280;5591;42.626;23.380;2023-08-06T03:09:40;92850.34;;;20.17;100.00
11077;BME280;5591;42.626;23.380;2023-08-06T03:12:08;92822.44;;;20.09;100.00
11077;BME280;5591;42.626;23.380;2023-08-06T03:14:34;92868.81;;;20.36;100.00
11077;BME280;5591;42.626;23.380;2023-08-06T03:17:01;92864.75;;;20.16;100.00
11077;BME280;5591;42.626;23.380;2023-08-06T03:19:29;92870.84;;;20.49;100.00
11077;BME280;5591;42.626;23.380;2023-08-06T03:21:56;92841.84;;;20.71;100.00
11077;BME280;5591;42.626;23.380;2023-08-06T03:24:23;92801.09;;;20.66;100.00
11077;BME280;5591;42.626;23.380;2023-08-06T03:26:50;92879.38;;;20.75;100.00
11077;BME280;5591;42.626;23.380;2023-08-06T03:29:16;92891.28;;;20.59;100.00
11077;BME280;5591;42.626;23.380;2023-08-06T03:31:44;92880.19;;;20.47;100.00
11077;BME280;5591;42.626;23.380;2023-08-06T03:34:10;92894.22;;;20.57;100.00
11077;BME280;5591;42.626;23.380;2023-08-06T03:36:39;92870.47;;;20.61;100.00
11077;BME280;5591;42.626;23.380;2023-08-06T03:39:06;92842.16;;;20.65;100.00
11077;BME280;5591;42.626;23.380;2023-08-06T03:41:33;92886.84;;;20.78;100.00
11077;BME280;5591;42.626;23.380;2023-08-06T03:43:59;92879.38;;;20.51;100.00
11077;BME280;5591;42.626;23.380;2023-08-06T03:46:28;92892.72;;;20.75;100.00
11077;BME280;5591;42.626;23.380;2023-08-06T03:48:55;92889.19;;;20.79;100.00
11077;BME280;5591;42.626;23.380;2023-08-06T03:51:22;92893.69;;;20.89;100.00
11077;BME280;5591;42.626;23.380;2023-08-06T03:53:50;92898.56;;;21.05;100.00
11077;BME280;5591;42.626;23.380;2023-08-06T03:56:17;92893.97;;;21.11;100.00
11077;BME280;5591;42.626;23.380;2023-08-06T03:58:44;92909.97;;;21.11;100.00
11077;BME280;5591;42.626;23.380;2023-08-06T04:01:10;92926.94;;;20.96;100.00
11077;BME280;5591;42.626;23.380;2023-08-06T04:03:37;92939.56;;;20.86;100.00
11077;BME280;5591;42.626;23.380;2023-08-06T04:06:04;92905.50;;;20.78;100.00
11077;BME280;5591;42.626;23.380;2023-08-06T04:08:31;92931.31;;;20.87;100.00
11077;BME280;5591;42.626;23.380;2023-08-06T04:10:59;92907.66;;;21.04;100.00
11077;BME280;5591;42.626;23.380;2023-08-06T04:13:26;92894.66;;;20.98;100.00
11077;BME280;5591;42.626;23.380;2023-08-06T04:15:53;92877.09;;;21.15;100.00
11077;BME280;5591;42.626;23.380;2023-08-06T04:18:20;92886.00;;;21.29;100.00
11077;BME280;5591;42.626;23.380;2023-08-06T04:20:47;92888.53;;;21.39;100.00
11077;BME280;5591;42.626;23.380;2023-08-06T04:23:15;92896.56;;;21.39;100.00
11077;BME280;5591;42.626;23.380;2023-08-06T04:25:41;92891.50;;;21.38;100.00
11077;BME280;5591;42.626;23.380;2023-08-06T04:28:10;92883.31;;;21.29;100.00
11077;BME280;5591;42.626;23.380;2023-08-06T04:30:37;92889.16;;;21.31;100.00
11077;BME280;5591;42.626;23.380;2023-08-06T04:33:04;92892.25;;;21.20;100.00
11077;BME280;5591;42.626;23.380;2023-08-06T04:35:30;92890.09;;;20.98;100.00
11077;BME280;5591;42.626;23.380;2023-08-06T04:37:57;92865.69;;;21.10;100.00
11077;BME280;5591;42.626;23.380;2023-08-06T04:40:24;92900.50;;;21.00;100.00
11077;BME280;5591;42.626;23.380;2023-08-06T04:42:53;92864.13;;;20.80;100.00
11077;BME280;5591;42.626;23.380;2023-08-06T04:45:21;92855.88;;;20.53;100.00
11077;BME280;5591;42.626;23.380;2023-08-06T04:47:49;92843.94;;;20.74;100.00
11077;BME280;5591;42.626;23.380;2023-08-06T04:50:16;92830.22;;;20.86;100.00
11077;BME280;5591;42.626;23.380;2023-08-06T04:52:43;92830.66;;;20.93;100.00
11077;BME280;5591;42.626;23.380;2023-08-06T04:55:10;92818.22;;;21.07;100.00
11077;BME280;5591;42.626;23.380;2023-08-06T04:57:36;92806.09;;;20.96;100.00
11077;BME280;5591;42.626;23.380;2023-08-06T05:00:07;92809.78;;;21.00;100.00
11077;BME280;5591;42.626;23.380;2023-08-06T05:02:36;92822.66;;;21.16;100.00
11077;BME280;5591;42.626;23.380;2023-08-06T05:05:04;92752.72;;;20.96;100.00
11077;BME280;5591;42.626;23.380;2023-08-06T05:07:31;92819.72;;;21.36;100.00
11077;BME280;5591;42.626;23.380;2023-08-06T05:09:58;92819.41;;;20.96;100.00
11077;BME280;5591;42.626;23.380;2023-08-06T05:12:24;92829.94;;;21.11;100.00
11077;BME280;5591;42.626;23.380;2023-08-06T05:14:51;92836.38;;;21.47;100.00
11077;BME280;5591;42.626;23.380;2023-08-06T05:17:18;92841.66;;;21.89;100.00
11077;BME280;5591;42.626;23.380;2023-08-06T05:19:46;92830.84;;;21.62;100.00
11077;BME280;5591;42.626;23.380;2023-08-06T05:22:13;92849.50;;;21.43;100.00
11077;BME280;5591;42.626;23.380;2023-08-06T05:24:40;92833.66;;;21.52;100.00
11077;BME280;5591;42.626;23.380;2023-08-06T05:27:06;92836.31;;;21.52;100.00
11077;BME280;5591;42.626;23.380;2023-08-06T05:29:33;92840.16;;;22.01;100.00
11077;BME280;5591;42.626;23.380;2023-08-06T05:32:00;92847.22;;;22.43;100.00
11077;BME280;5591;42.626;23.380;2023-08-06T05:34:27;92857.94;;;22.24;100.00
11077;BME280;5591;42.626;23.380;2023-08-06T05:36:55;92849.78;;;22.93;100.00
11077;BME280;5591;42.626;23.380;2023-08-06T05:39:22;92856.16;;;23.10;100.00
11077;BME280;5591;42.626;23.380;2023-08-06T05:41:48;92851.41;;;23.21;100.00
11077;BME280;5591;42.626;23.380;2023-08-06T05:44:15;92859.03;;;23.54;100.00
11077;BME280;5591;42.626;23.380;2023-08-06T05:46:42;92858.75;;;23.91;100.00
11077;BME280;5591;42.626;23.380;2023-08-06T05:49:09;92874.19;;;24.52;100.00
11077;BME280;5591;42.626;23.380;2023-08-06T05:51:38;92886.84;;;25.04;100.00
11077;BME280;5591;42.626;23.380;2023-08-06T05:54:06;92902.47;;;25.24;100.00
11077;BME280;5591;42.626;23.380;2023-08-06T05:56:32;92909.91;;;25.05;100.00
11077;BME280;5591;42.626;23.380;2023-08-06T05:58:59;92900.59;;;24.80;100.00
11077;BME280;5591;42.626;23.380;2023-08-06T06:01:26;92899.78;;;25.24;100.00
11077;BME280;5591;42.626;23.380;2023-08-06T06:03:53;92914.72;;;25.16;100.00
11077;BME280;5591;42.626;23.380;2023-08-06T06:06:19;92915.53;;;25.56;100.00
11077;BME280;5591;42.626;23.380;2023-08-06T06:08:46;92918.59;;;25.71;100.00
11077;BME280;5591;42.626;23.380;2023-08-06T06:11:14;92930.75;;;25.69;100.00
11077;BME280;5591;42.626;23.380;2023-08-06T06:13:41;92935.50;;;25.24;100.00
11077;BME280;5591;42.626;23.380;2023-08-06T06:16:08;92940.34;;;24.92;100.00
11077;BME280;5591;42.626;23.380;2023-08-06T06:18:35;92938.03;;;24.77;100.00
11077;BME280;5591;42.626;23.380;2023-08-06T06:21:02;92936.13;;;24.77;100.00
11077;BME280;5591;42.626;23.380;2023-08-06T06:23:28;92847.41;;;23.45;100.00
11077;BME280;5591;42.626;23.380;2023-08-06T06:25:55;92930.72;;;24.33;100.00
11077;BME280;5591;42.626;23.380;2023-08-06T06:28:23;92932.25;;;24.48;100.00
11077;BME280;5591;42.626;23.380;2023-08-06T06:30:51;92932.34;;;24.21;100.00
11077;BME280;5591;42.626;23.380;2023-08-06T06:33:18;92945.63;;;24.39;100.00
11077;BME280;5591;42.626;23.380;2023-08-06T06:35:45;92943.22;;;24.38;100.00
11077;BME280;5591;42.626;23.380;2023-08-06T06:38:11;92947.25;;;24.27;100.00
11077;BME280;5591;42.626;23.380;2023-08-06T06:40:38;92883.41;;;23.66;100.00
11077;BME280;5591;42.626;23.380;2023-08-06T06:43:05;92950.84;;;24.58;100.00
11077;BME280;5591;42.626;23.380;2023-08-06T06:45:33;92972.31;;;25.02;100.00
11077;BME280;5591;42.626;23.380;2023-08-06T06:48:00;92990.81;;;24.81;100.00
11077;BME280;5591;42.626;23.380;2023-08-06T06:50:27;92990.50;;;23.98;100.00
11077;BME280;5591;42.626;23.380;2023-08-06T06:52:54;92981.53;;;23.35;100.00
11077;BME280;5591;42.626;23.380;2023-08-06T06:55:20;93013.91;;;24.20;100.00
11077;BME280;5591;42.626;23.380;2023-08-06T06:57:47;92989.09;;;24.63;100.00
11077;BME280;5591;42.626;23.380;2023-08-06T07:00:14;93001.28;;;24.20;100.00
11077;BME280;5591;42.626;23.380;2023-08-06T07:02:42;93030.72;;;23.98;100.00
11077;BME280;5591;42.626;23.380;2023-08-06T07:05:09;93026.16;;;23.26;100.00
11077;BME280;5591;42.626;23.380;2023-08-06T07:07:36;93013.63;;;22.90;100.00
11077;BME280;5591;42.626;23.380;2023-08-06T07:10:03;93008.44;;;22.80;100.00
11077;BME280;5591;42.626;23.380;2023-08-06T07:12:31;92976.31;;;22.48;100.00
11077;BME280;5591;42.626;23.380;2023-08-06T07:14:57;93030.50;;;22.91;100.00
11077;BME280;5591;42.626;23.380;2023-08-06T07:17:24;93030.38;;;22.45;100.00
11077;BME280;5591;42.626;23.380;2023-08-06T07:19:52;93019.75;;;22.40;100.00
11077;BME280;5591;42.626;23.380;2023-08-06T07:22:19;93037.38;;;22.78;100.00
11077;BME280;5591;42.626;23.380;2023-08-06T07:24:46;93050.22;;;22.39;100.00
11077;BME280;5591;42.626;23.380;2023-08-06T07:27:13;93051.50;;;22.65;100.00
11077;BME280;5591;42.626;23.380;2023-08-06T07:29:39;93049.22;;;22.91;100.00
11077;BME280;5591;42.626;23.380;2023-08-06T07:32:07;93050.63;;;23.20;100.00
11077;BME280;5591;42.626;23.380;2023-08-06T07:34:33;93039.69;;;22.85;100.00
11077;BME280;5591;42.626;23.380;2023-08-06T07:37:01;93059.16;;;23.54;100.00
11077;BME280;5591;42.626;23.380;2023-08-06T07:39:28;93028.94;;;23.35;100.00
11077;BME280;5591;42.626;23.380;2023-08-06T07:41:55;93059.53;;;23.93;100.00
11077;BME280;5591;42.626;23.380;2023-08-06T07:44:22;93073.34;;;23.68;100.00
11077;BME280;5591;42.626;23.380;2023-08-06T07:46:49;93079.69;;;23.58;100.00
11077;BME280;5591;42.626;23.380;2023-08-06T07:49:16;93051.06;;;23.27;100.00
11077;BME280;5591;42.626;23.380;2023-08-06T07:51:42;93066.59;;;23.25;100.00
11077;BME280;5591;42.626;23.380;2023-08-06T07:54:11;93084.94;;;23.18;100.00
11077;BME280;5591;42.626;23.380;2023-08-06T07:56:37;93062.06;;;23.84;100.00
11077;BME280;5591;42.626;23.380;2023-08-06T07:59:04;93068.47;;;23.56;100.00
11077;BME280;5591;42.626;23.380;2023-08-06T08:01:31;93065.72;;;23.75;100.00
11077;BME280;5591;42.626;23.380;2023-08-06T08:03:58;93058.22;;;23.90;100.00
11077;BME280;5591;42.626;23.380;2023-08-06T08:06:24;93042.59;;;23.65;100.00
11077;BME280;5591;42.626;23.380;2023-08-06T08:08:51;93054.03;;;23.98;100.00
11077;BME280;5591;42.626;23.380;2023-08-06T08:11:20;93046.75;;;24.39;100.00
11077;BME280;5591;42.626;23.380;2023-08-06T08:13:47;93054.63;;;24.22;100.00
11077;BME280;5591;42.626;23.380;2023-08-06T08:16:14;93060.50;;;24.24;100.00
11077;BME280;5591;42.626;23.380;2023-08-06T08:18:40;93065.47;;;24.30;100.00
11077;BME280;5591;42.626;23.380;2023-08-06T08:21:07;93063.28;;;24.19;100.00
11077;BME280;5591;42.626;23.380;2023-08-06T08:23:34;93048.41;;;24.48;100.00
11077;BME280;5591;42.626;23.380;2023-08-06T08:26:01;93075.78;;;24.10;100.00
11077;BME280;5591;42.626;23.380;2023-08-06T08:28:30;93060.38;;;24.15;100.00
11077;BME280;5591;42.626;23.380;2023-08-06T08:30:57;93071.81;;;24.34;100.00
11077;BME280;5591;42.626;23.380;2023-08-06T08:33:24;93075.09;;;24.80;100.00
11077;BME280;5591;42.626;23.380;2023-08-06T08:35:50;93057.88;;;24.46;100.00
11077;BME280;5591;42.626;23.380;2023-08-06T08:38:17;93072.03;;;24.87;100.00
11077;BME280;5591;42.626;23.380;2023-08-06T08:40:46;93074.09;;;24.54;100.00
11077;BME280;5591;42.626;23.380;2023-08-06T08:43:14;92955.84;;;23.21;100.00
11077;BME280;5591;42.626;23.380;2023-08-06T08:45:44;92958.91;;;23.82;100.00
11077;BME280;5591;42.626;23.380;2023-08-06T08:48:16;93038.91;;;24.56;100.00
11077;BME280;5591;42.626;23.380;2023-08-06T08:50:44;92968.94;;;24.03;100.00
11077;BME280;5591;42.626;23.380;2023-08-06T08:53:11;92982.03;;;23.78;100.00
11077;BME280;5591;42.626;23.380;2023-08-06T08:55:40;93048.53;;;24.70;100.00
11077;BME280;5591;42.626;23.380;2023-08-06T08:58:07;93054.38;;;24.72;100.00
11077;BME280;5591;42.626;23.380;2023-08-06T09:00:34;93061.53;;;24.77;100.00
11077;BME280;5591;42.626;23.380;2023-08-06T09:03:06;92964.22;;;24.22;100.00
11077;BME280;5591;42.626;23.380;2023-08-06T09:05:33;93044.72;;;24.71;100.00
11077;BME280;5591;42.626;23.380;2023-08-06T09:08:02;93055.72;;;24.83;100.00
11077;BME280;5591;42.626;23.380;2023-08-06T09:10:29;93056.50;;;24.84;100.00
11077;BME280;5591;42.626;23.380;2023-08-06T09:12:57;93028.31;;;24.95;100.00
11077;BME280;5591;42.626;23.380;2023-08-06T09:15:26;93013.22;;;24.99;100.00
11077;BME280;5591;42.626;23.380;2023-08-06T09:17:54;93036.72;;;25.37;98.88
11077;BME280;5591;42.626;23.380;2023-08-06T09:20:22;93028.34;;;25.69;93.47
11077;BME280;5591;42.626;23.380;2023-08-06T09:22:49;93031.50;;;25.71;93.43
11077;BME280;5591;42.626;23.380;2023-08-06T09:25:21;93025.81;;;26.03;91.02
11077;BME280;5591;42.626;23.380;2023-08-06T09:27:50;93025.84;;;25.73;92.34
11077;BME280;5591;42.626;23.380;2023-08-06T09:30:29;93039.38;;;25.89;90.55
11077;BME280;5591;42.626;23.380;2023-08-06T09:32:57;93020.91;;;25.66;89.35
11077;BME280;5591;42.626;23.380;2023-08-06T09:35:28;93038.47;;;25.42;90.12
11077;BME280;5591;42.626;23.380;2023-08-06T09:37:55;93038.69;;;25.54;90.21
11077;BME280;5591;42.626;23.380;2023-08-06T09:40:25;93028.66;;;25.37;89.79
11077;BME280;5591;42.626;23.380;2023-08-06T09:42:53;92981.69;;;25.13;88.45
11077;BME280;5591;42.626;23.380;2023-08-06T09:45:20;93015.88;;;26.12;85.84
11077;BME280;5591;42.626;23.380;2023-08-06T09:47:48;93009.63;;;26.42;85.14
11077;BME280;5591;42.626;23.380;2023-08-06T09:50:16;93019.81;;;26.62;82.90
11077;BME280;5591;42.626;23.380;2023-08-06T09:52:45;93012.84;;;27.12;78.19
11077;BME280;5591;42.626;23.380;2023-08-06T09:55:13;93031.28;;;26.28;81.42
11077;BME280;5591;42.626;23.380;2023-08-06T09:57:40;93037.63;;;26.41;82.44
11077;BME280;5591;42.626;23.380;2023-08-06T10:00:08;93026.59;;;26.68;77.82
11077;BME280;5591;42.626;23.380;2023-08-06T10:02:37;93022.44;;;27.55;76.45
11077;BME280;5591;42.626;23.380;2023-08-06T10:05:04;93036.63;;;27.18;77.28
11077;BME280;5591;42.626;23.380;2023-08-06T10:07:31;93032.47;;;27.38;77.36
11077;BME280;5591;42.626;23.380;2023-08-06T10:10:00;93046.59;;;27.43;73.37
11077;BME280;5591;42.626;23.380;2023-08-06T10:12:29;93031.53;;;27.34;76.65
11077;BME280;5591;42.626;23.380;2023-08-06T10:14:58;93029.16;;;27.07;80.91
11077;BME280;5591;42.626;23.380;2023-08-06T10:17:26;93051.34;;;26.78;83.41
11077;BME280;5591;42.626;23.380;2023-08-06T10:19:54;93050.78;;;27.87;77.56
11077;BME280;5591;42.626;23.380;2023-08-06T10:22:21;93048.06;;;27.95;69.63
11077;BME280;5591;42.626;23.380;2023-08-06T10:24:50;93038.75;;;27.84;71.74
11077;BME280;5591;42.626;23.380;2023-08-06T10:27:28;93052.94;;;27.39;74.35
11077;BME280;5591;42.626;23.380;2023-08-06T10:29:55;93048.78;;;27.41;75.69
11077;BME280;5591;42.626;23.380;2023-08-06T10:32:48;93053.72;;;27.39;74.32
11077;BME280;5591;42.626;23.380;2023-08-06T10:35:28;93074.13;;;26.72;81.46
11077;BME280;5591;42.626;23.380;2023-08-06T10:37:58;92971.94;;;27.01;78.19
11077;BME280;5591;42.626;23.380;2023-08-06T10:40:25;93054.19;;;26.65;78.86
11077;BME280;5591;42.626;23.380;2023-08-06T10:42:53;93060.13;;;26.45;79.05
11077;BME280;5591;42.626;23.380;2023-08-06T10:45:20;93059.00;;;26.37;81.84
11077;BME280;5591;42.626;23.380;2023-08-06T10:47:49;93060.44;;;26.43;80.84
11077;BME280;5591;42.626;23.380;2023-08-06T10:50:16;93053.66;;;26.54;81.97
11077;BME280;5591;42.626;23.380;2023-08-06T10:52:43;93062.88;;;26.62;81.06
11077;BME280;5591;42.626;23.380;2023-08-06T10:55:10;93056.59;;;26.27;80.49
11077;BME280;5591;42.626;23.380;2023-08-06T10:57:37;93072.84;;;26.61;79.88
11077;BME280;5591;42.626;23.380;2023-08-06T11:00:07;93071.47;;;26.33;80.44
11077;BME280;5591;42.626;23.380;2023-08-06T11:02:35;93088.78;;;26.49;78.50
11077;BME280;5591;42.626;23.380;2023-08-06T11:05:06;93085.50;;;26.61;80.73
11077;BME280;5591;42.626;23.380;2023-08-06T11:07:33;93086.31;;;26.70;81.91
11077;BME280;5591;42.626;23.380;2023-08-06T11:10:04;93077.50;;;27.37;76.47
11077;BME280;5591;42.626;23.380;2023-08-06T11:12:32;93085.28;;;27.22;77.18
11077;BME280;5591;42.626;23.380;2023-08-06T11:14:59;93079.53;;;26.81;80.23
11077;BME280;5591;42.626;23.380;2023-08-06T11:17:29;93087.75;;;26.67;82.58
11077;BME280;5591;42.626;23.380;2023-08-06T11:19:59;93058.34;;;27.22;79.58
11077;BME280;5591;42.626;23.380;2023-08-06T11:22:26;93090.00;;;27.50;77.70
11077;BME280;5591;42.626;23.380;2023-08-06T11:24:53;93094.97;;;27.14;78.36
11077;BME280;5591;42.626;23.380;2023-08-06T11:27:20;93098.59;;;28.15;74.07
11077;BME280;5591;42.626;23.380;2023-08-06T11:29:47;93137.38;;;28.11;78.90
11077;BME280;5591;42.626;23.380;2023-08-06T11:32:14;93110.25;;;26.71;85.40
11077;BME280;5591;42.626;23.380;2023-08-06T11:34:43;93095.84;;;26.67;78.53
11077;BME280;5591;42.626;23.380;2023-08-06T11:37:10;93100.25;;;26.72;73.90
11077;BME280;5591;42.626;23.380;2023-08-06T11:39:38;93097.25;;;26.73;74.92
11077;BME280;5591;42.626;23.380;2023-08-06T11:42:06;93096.34;;;26.30;76.22
11077;BME280;5591;42.626;23.380;2023-08-06T11:44:35;93093.47;;;26.27;77.94
11077;BME280;5591;42.626;23.380;2023-08-06T11:47:05;93093.38;;;25.79;81.16
11077;BME280;5591;42.626;23.380;2023-08-06T11:49:43;93105.53;;;25.47;84.72
11077;BME280;5591;42.626;23.380;2023-08-06T11:52:14;93086.50;;;25.65;83.86
11077;BME280;5591;42.626;23.380;2023-08-06T11:54:44;93082.66;;;25.14;86.29
11077;BME280;5591;42.626;23.380;2023-08-06T11:57:11;93090.78;;;25.44;85.28
11077;BME280;5591;42.626;23.380;2023-08-06T11:59:38;93084.03;;;25.25;89.96
11077;BME280;5591;42.626;23.380;2023-08-06T12:02:08;93090.25;;;25.56;89.68
11077;BME280;5591;42.626;23.380;2023-08-06T12:05:00;93090.41;;;26.11;88.50
11077;BME280;5591;42.626;23.380;2023-08-06T12:07:31;93093.09;;;25.81;90.25
11077;BME280;5591;42.626;23.380;2023-08-06T12:09:58;93025.63;;;25.17;90.18
11077;BME280;5591;42.626;23.380;2023-08-06T12:12:26;93093.63;;;25.39;89.43
11077;BME280;5591;42.626;23.380;2023-08-06T12:14:54;93089.16;;;26.17;84.10
11077;BME280;5591;42.626;23.380;2023-08-06T12:17:21;93081.94;;;27.42;77.08
11077;BME280;5591;42.626;23.380;2023-08-06T12:19:48;93076.94;;;28.69;68.29
11077;BME280;5591;42.626;23.380;2023-08-06T12:22:16;93077.63;;;28.21;68.80
11077;BME280;5591;42.626;23.380;2023-08-06T12:24:44;93065.75;;;28.22;71.33
11077;BME280;5591;42.626;23.380;2023-08-06T12:27:12;93077.16;;;28.19;70.68
11077;BME280;5591;42.626;23.380;2023-08-06T12:29:40;93073.84;;;27.59;73.90
11077;BME280;5591;42.626;23.380;2023-08-06T12:32:08;93093.47;;;27.68;75.67
11077;BME280;5591;42.626;23.380;2023-08-06T12:34:35;93081.13;;;27.75;76.95
11077;BME280;5591;42.626;23.380;2023-08-06T12:37:02;93064.19;;;27.24;80.92
11077;BME280;5591;42.626;23.380;2023-08-06T12:39:31;93078.78;;;27.06;83.60
11077;BME280;5591;42.626;23.380;2023-08-06T12:41:58;93097.13;;;26.87;84.63
11077;BME280;5591;42.626;23.380;2023-08-06T12:44:25;93084.59;;;26.82;84.24
11077;BME280;5591;42.626;23.380;2023-08-06T12:46:52;93080.50;;;27.36;81.82
11077;BME280;5591;42.626;23.380;2023-08-06T12:49:19;93087.19;;;27.21;82.46
11077;BME280;5591;42.626;23.380;2023-08-06T12:51:47;93088.44;;;27.24;82.57
11077;BME280;5591;42.626;23.380;2023-08-06T12:54:16;93074.91;;;27.83;80.43
11077;BME280;5591;42.626;23.380;2023-08-06T12:56:44;93071.00;;;28.18;76.63
11077;BME280;5591;42.626;23.380;2023-08-06T12:59:11;93084.22;;;27.94;79.26
11077;BME280;5591;42.626;23.380;2023-08-06T13:01:38;93082.72;;;28.22;77.88
11077;BME280;5591;42.626;23.380;2023-08-06T13:04:05;93082.50;;;27.98;78.07
11077;BME280;5591;42.626;23.380;2023-08-06T13:06:31;93081.50;;;28.11;78.33
11077;BME280;5591;42.626;23.380;2023-08-06T13:09:02;93076.06;;;28.57;76.27
11077;BME280;5591;42.626;23.380;2023-08-06T13:11:29;93000.03;;;28.47;73.44
11077;BME280;5591;42.626;23.380;2023-08-06T13:14:03;93074.00;;;31.41;59.10
11077;BME280;5591;42.626;23.380;2023-08-06T13:16:30;93069.91;;;31.47;55.74
11077;BME280;5591;42.626;23.380;2023-08-06T13:18:57;93066.91;;;33.50;48.27
11077;BME280;5591;42.626;23.380;2023-08-06T13:21:23;93057.38;;;34.83;43.76
11077;BME280;5591;42.626;23.380;2023-08-06T13:23:50;93077.06;;;32.37;47.32
11077;BME280;5591;42.626;23.380;2023-08-06T13:26:17;93075.06;;;32.65;48.69
11077;BME280;5591;42.626;23.380;2023-08-06T13:28:44;93089.50;;;31.95;49.65
11077;BME280;5591;42.626;23.380;2023-08-06T13:31:12;93080.84;;;30.15;59.42
11077;BME280;5591;42.626;23.380;2023-08-06T13:33:39;93090.16;;;29.73;62.24
11077;BME280;5591;42.626;23.380;2023-08-06T13:36:06;93084.00;;;28.82;66.09
11077;BME280;5591;42.626;23.380;2023-08-06T13:38:33;93087.06;;;28.06;70.95
11077;BME280;5591;42.626;23.380;2023-08-06T13:41:01;93093.78;;;27.83;73.23
11077;BME280;5591;42.626;23.380;2023-08-06T13:43:28;93093.03;;;27.57;76.83
11077;BME280;5591;42.626;23.380;2023-08-06T13:45:54;93093.84;;;27.41;77.05
11077;BME280;5591;42.626;23.380;2023-08-06T13:48:22;93123.47;;;27.07;79.88
11077;BME280;5591;42.626;23.380;2023-08-06T13:50:49;93099.09;;;27.29;79.62
11077;BME280;5591;42.626;23.380;2023-08-06T13:53:16;93104.13;;;27.30;79.07
11077;BME280;5591;42.626;23.380;2023-08-06T13:55:43;93095.22;;;28.35;73.19
11077;BME280;5591;42.626;23.380;2023-08-06T13:58:10;93093.03;;;31.05;57.72
11077;BME280;5591;42.626;23.380;2023-08-06T14:00:36;93081.25;;;32.50;50.73
11077;BME280;5591;42.626;23.380;2023-08-06T14:03:03;93080.53;;;34.48;44.40
11077;BME280;5591;42.626;23.380;2023-08-06T14:05:32;93079.31;;;33.85;44.28